createdAt,value
2017-11-04T00:00:37.117Z,1010.49
2017-11-04T00:01:37.116Z,1010.43
2017-11-04T00:02:37.117Z,1010.45
2017-11-04T00:03:37.115Z,1010.44
2017-11-04T00:04:37.115Z,1010.45
2017-11-04T00:05:37.123Z,1010.46
2017-11-04T00:06:37.117Z,1010.48
2017-11-04T00:07:37.125Z,1010.46
2017-11-04T00:08:37.122Z,1010.48
2017-11-04T00:09:37.122Z,1010.49
2017-11-04T00:10:37.121Z,1010.49
2017-11-04T00:11:37.126Z,1010.46
2017-11-04T00:12:37.129Z,1010.47
2017-11-04T00:13:37.124Z,1010.45
2017-11-04T00:14:37.129Z,1010.37
2017-11-04T00:15:37.125Z,1010.39
2017-11-04T00:16:37.129Z,1010.38
2017-11-04T00:17:37.125Z,1010.42
2017-11-04T00:18:37.128Z,1010.44
2017-11-04T00:19:37.152Z,1010.39
2017-11-04T00:20:37.132Z,1010.37
2017-11-04T00:21:37.131Z,1010.42
2017-11-04T00:22:37.130Z,1010.41
2017-11-04T00:23:37.133Z,1010.40
2017-11-04T00:24:37.136Z,1010.38
2017-11-04T00:25:37.137Z,1010.36
2017-11-04T00:26:37.133Z,1010.35
2017-11-04T00:27:37.145Z,1010.34
2017-11-04T00:28:37.135Z,1010.34
2017-11-04T00:29:37.136Z,1010.35
2017-11-04T00:30:37.136Z,1010.31
2017-11-04T00:31:37.133Z,1010.26
2017-11-04T00:32:37.142Z,1010.30
2017-11-04T00:33:37.136Z,1010.32
2017-11-04T00:34:37.154Z,1010.29
2017-11-04T00:35:37.143Z,1010.32
2017-11-04T00:36:37.141Z,1010.27
2017-11-04T00:37:37.143Z,1010.25
2017-11-04T00:38:37.145Z,1010.29
2017-11-04T00:39:37.139Z,1010.29
2017-11-04T00:40:37.143Z,1010.29
2017-11-04T00:41:37.141Z,1010.27
2017-11-04T00:42:37.141Z,1010.31
2017-11-04T00:43:37.142Z,1010.28
2017-11-04T00:44:37.144Z,1010.30
2017-11-04T00:45:37.149Z,1010.29
2017-11-04T00:46:37.142Z,1010.26
2017-11-04T00:47:37.145Z,1010.26
2017-11-04T00:48:37.151Z,1010.31
2017-11-04T00:49:37.145Z,1010.27
2017-11-04T00:50:37.156Z,1010.29
2017-11-04T00:51:37.142Z,1010.24
2017-11-04T00:52:37.153Z,1010.29
2017-11-04T00:53:37.151Z,1010.24
2017-11-04T00:54:37.153Z,1010.25
2017-11-04T00:55:37.154Z,1010.24
2017-11-04T00:56:37.150Z,1010.23
2017-11-04T00:57:37.161Z,1010.22
2017-11-04T00:58:37.160Z,1010.19
2017-11-04T00:59:37.151Z,1010.15
2017-11-04T01:00:37.152Z,1010.18
2017-11-04T01:01:37.155Z,1010.15
2017-11-04T01:02:37.151Z,1010.13
2017-11-04T01:03:37.155Z,1010.16
2017-11-04T01:04:37.159Z,1010.13
2017-11-04T01:05:37.155Z,1010.15
2017-11-04T01:06:37.161Z,1010.11
2017-11-04T01:07:37.161Z,1010.13
2017-11-04T01:08:37.159Z,1010.13
2017-11-04T01:09:37.162Z,1010.10
2017-11-04T01:10:37.167Z,1010.09
2017-11-04T01:11:37.159Z,1010.07
2017-11-04T01:12:37.162Z,1010.06
2017-11-04T01:13:37.157Z,1010.02
2017-11-04T01:14:37.171Z,1010.01
2017-11-04T01:15:37.171Z,1010.02
2017-11-04T01:16:37.161Z,1009.97
2017-11-04T01:17:37.164Z,1009.93
2017-11-04T01:18:37.171Z,1009.97
2017-11-04T01:19:37.163Z,1009.98
2017-11-04T01:20:37.165Z,1009.96
2017-11-04T01:21:37.170Z,1009.96
2017-11-04T01:22:37.179Z,1009.94
2017-11-04T01:23:37.167Z,1009.92
2017-11-04T01:24:37.211Z,1009.86
2017-11-04T01:25:37.169Z,1009.90
2017-11-04T01:26:37.184Z,1009.88
2017-11-04T01:27:37.174Z,1009.91
2017-11-04T01:28:37.170Z,1009.90
2017-11-04T01:29:37.171Z,1009.88
2017-11-04T01:30:37.172Z,1009.87
2017-11-04T01:31:37.172Z,1009.89
2017-11-04T01:32:37.171Z,1009.89
2017-11-04T01:33:37.172Z,1009.83
2017-11-04T01:34:37.172Z,1009.84
2017-11-04T01:35:37.172Z,1009.84
2017-11-04T01:36:37.173Z,1009.86
2017-11-04T01:37:37.182Z,1009.86
2017-11-04T01:38:37.176Z,1009.85
2017-11-04T01:39:37.181Z,1009.89
2017-11-04T01:40:37.181Z,1009.88
2017-11-04T01:41:37.181Z,1009.90
2017-11-04T01:42:37.181Z,1009.86
2017-11-04T01:43:37.180Z,1009.86
2017-11-04T01:44:37.187Z,1009.89
2017-11-04T01:45:37.182Z,1009.86
2017-11-04T01:46:37.182Z,1009.86
2017-11-04T01:47:37.179Z,1009.87
2017-11-04T01:48:37.181Z,1009.83
2017-11-04T01:49:37.183Z,1009.86
2017-11-04T01:50:37.178Z,1009.82
2017-11-04T01:51:37.181Z,1009.83
2017-11-04T01:52:37.183Z,1009.82
2017-11-04T01:53:37.183Z,1009.86
2017-11-04T01:54:37.180Z,1009.81
2017-11-04T01:55:37.190Z,1009.79
2017-11-04T01:56:37.190Z,1009.80
2017-11-04T01:57:37.190Z,1009.77
2017-11-04T01:58:37.190Z,1009.78
2017-11-04T01:59:37.194Z,1009.75
2017-11-04T02:00:37.194Z,1009.76
2017-11-04T02:01:37.196Z,1009.79
2017-11-04T02:02:37.198Z,1009.79
2017-11-04T02:03:37.192Z,1009.76
2017-11-04T02:04:37.193Z,1009.76
2017-11-04T02:05:37.195Z,1009.76
2017-11-04T02:06:37.191Z,1009.74
2017-11-04T02:07:37.190Z,1009.77
2017-11-04T02:08:37.191Z,1009.74
2017-11-04T02:09:37.195Z,1009.76
2017-11-04T02:10:37.195Z,1009.72
2017-11-04T02:11:37.195Z,1009.72
2017-11-04T02:12:37.191Z,1009.71
2017-11-04T02:13:37.198Z,1009.68
2017-11-04T02:14:37.200Z,1009.68
2017-11-04T02:15:37.193Z,1009.68
2017-11-04T02:16:37.201Z,1009.68
2017-11-04T02:17:37.200Z,1009.62
2017-11-04T02:18:37.198Z,1009.65
2017-11-04T02:19:37.196Z,1009.68
2017-11-04T02:20:37.201Z,1009.63
2017-11-04T02:21:37.199Z,1009.61
2017-11-04T02:22:37.202Z,1009.60
2017-11-04T02:23:37.199Z,1009.59
2017-11-04T02:24:37.201Z,1009.59
2017-11-04T02:25:37.200Z,1009.58
2017-11-04T02:26:37.200Z,1009.58
2017-11-04T02:27:37.208Z,1009.55
2017-11-04T02:28:37.201Z,1009.51
2017-11-04T02:29:37.201Z,1009.48
2017-11-04T02:30:37.202Z,1009.49
2017-11-04T02:31:37.210Z,1009.50
2017-11-04T02:32:37.205Z,1009.51
2017-11-04T02:33:37.211Z,1009.51
2017-11-04T02:34:37.219Z,1009.48
2017-11-04T02:35:37.208Z,1009.50
2017-11-04T02:36:37.208Z,1009.46
2017-11-04T02:37:37.208Z,1009.45
2017-11-04T02:38:37.207Z,1009.44
2017-11-04T02:39:37.208Z,1009.43
2017-11-04T02:40:37.206Z,1009.45
2017-11-04T02:41:37.288Z,1009.43
2017-11-04T02:42:37.209Z,1009.42
2017-11-04T02:43:37.207Z,1009.40
2017-11-04T02:44:37.211Z,1009.39
2017-11-04T02:45:37.217Z,1009.37
2017-11-04T02:46:37.210Z,1009.44
2017-11-04T02:47:37.211Z,1009.40
2017-11-04T02:48:37.218Z,1009.40
2017-11-04T02:49:37.215Z,1009.40
2017-11-04T02:50:37.219Z,1009.37
2017-11-04T02:51:37.210Z,1009.37
2017-11-04T02:52:37.221Z,1009.37
2017-11-04T02:53:37.212Z,1009.35
2017-11-04T02:54:37.211Z,1009.39
2017-11-04T02:55:37.230Z,1009.38
2017-11-04T02:56:37.219Z,1009.32
2017-11-04T02:57:37.218Z,1009.32
2017-11-04T02:58:37.214Z,1009.35
2017-11-04T02:59:37.220Z,1009.35
2017-11-04T03:00:37.219Z,1009.34
2017-11-04T03:01:37.218Z,1009.33
2017-11-04T03:02:37.221Z,1009.32
2017-11-04T03:03:37.224Z,1009.29
2017-11-04T03:04:37.230Z,1009.30
2017-11-04T03:05:37.222Z,1009.31
2017-11-04T03:06:37.223Z,1009.28
2017-11-04T03:07:37.221Z,1009.26
2017-11-04T03:08:37.221Z,1009.25
2017-11-04T03:09:37.220Z,1009.23
2017-11-04T03:10:37.222Z,1009.19
2017-11-04T03:11:37.224Z,1009.21
2017-11-04T03:12:37.221Z,1009.20
2017-11-04T03:13:37.232Z,1009.17
2017-11-04T03:14:37.220Z,1009.16
2017-11-04T03:15:37.228Z,1009.11
2017-11-04T03:16:37.228Z,1009.13
2017-11-04T03:17:37.225Z,1009.13
2017-11-04T03:18:37.224Z,1009.12
2017-11-04T03:19:37.234Z,1009.14
2017-11-04T03:20:37.227Z,1009.10
2017-11-04T03:21:37.228Z,1009.12
2017-11-04T03:22:37.228Z,1009.10
2017-11-04T03:23:37.235Z,1009.08
2017-11-04T03:24:37.228Z,1009.09
2017-11-04T03:25:37.230Z,1009.10
2017-11-04T03:26:37.229Z,1009.09
2017-11-04T03:27:37.252Z,1009.08
2017-11-04T03:28:37.236Z,1009.14
2017-11-04T03:29:37.257Z,1009.10
2017-11-04T03:30:37.236Z,1009.11
2017-11-04T03:31:37.242Z,1009.04
2017-11-04T03:32:37.240Z,1009.10
2017-11-04T03:33:37.235Z,1009.08
2017-11-04T03:34:37.233Z,1009.07
2017-11-04T03:35:37.239Z,1009.06
2017-11-04T03:36:37.237Z,1009.05
2017-11-04T03:37:37.239Z,1009.06
2017-11-04T03:38:37.238Z,1009.08
2017-11-04T03:39:37.232Z,1009.05
2017-11-04T03:40:37.240Z,1009.04
2017-11-04T03:41:37.242Z,1008.98
2017-11-04T03:42:37.243Z,1008.99
2017-11-04T03:43:37.245Z,1009.00
2017-11-04T03:44:37.239Z,1008.97
2017-11-04T03:45:37.255Z,1008.99
2017-11-04T03:46:37.243Z,1008.92
2017-11-04T03:47:37.236Z,1008.94
2017-11-04T03:48:37.240Z,1008.92
2017-11-04T03:49:37.244Z,1008.92
2017-11-04T03:50:37.243Z,1008.83
2017-11-04T03:51:37.240Z,1008.86
2017-11-04T03:52:37.240Z,1008.93
2017-11-04T03:53:37.241Z,1008.88
2017-11-04T03:54:37.240Z,1008.84
2017-11-04T03:55:37.243Z,1008.89
2017-11-04T03:56:37.247Z,1008.91
2017-11-04T03:57:37.240Z,1008.89
2017-11-04T03:58:37.249Z,1008.88
2017-11-04T03:59:37.241Z,1008.89
2017-11-04T04:00:37.246Z,1008.84
2017-11-04T04:01:37.246Z,1008.78
2017-11-04T04:02:37.247Z,1008.85
2017-11-04T04:03:37.253Z,1008.84
2017-11-04T04:04:37.247Z,1008.80
2017-11-04T04:05:37.251Z,1008.85
2017-11-04T04:06:37.254Z,1008.83
2017-11-04T04:07:37.248Z,1008.76
2017-11-04T04:08:37.246Z,1008.76
2017-11-04T04:09:37.247Z,1008.80
2017-11-04T04:10:37.247Z,1008.80
2017-11-04T04:11:37.249Z,1008.73
2017-11-04T04:12:37.249Z,1008.77
2017-11-04T04:13:37.249Z,1008.76
2017-11-04T04:14:37.254Z,1008.79
2017-11-04T04:15:37.249Z,1008.75
2017-11-04T04:16:37.252Z,1008.73
2017-11-04T04:17:37.250Z,1008.74
2017-11-04T04:18:37.249Z,1008.72
2017-11-04T04:19:37.254Z,1008.73
2017-11-04T04:20:37.250Z,1008.71
2017-11-04T04:21:37.257Z,1008.74
2017-11-04T04:22:37.274Z,1008.70
2017-11-04T04:23:37.252Z,1008.70
2017-11-04T04:24:37.252Z,1008.68
2017-11-04T04:25:37.259Z,1008.66
2017-11-04T04:26:37.252Z,1008.70
2017-11-04T04:27:37.262Z,1008.68
2017-11-04T04:28:37.266Z,1008.65
2017-11-04T04:29:37.259Z,1008.68
2017-11-04T04:30:37.256Z,1008.63
2017-11-04T04:31:37.260Z,1008.66
2017-11-04T04:32:37.261Z,1008.61
2017-11-04T04:33:37.257Z,1008.60
2017-11-04T04:34:37.258Z,1008.63
2017-11-04T04:35:37.265Z,1008.62
2017-11-04T04:36:37.263Z,1008.62
2017-11-04T04:37:37.257Z,1008.59
2017-11-04T04:38:37.257Z,1008.59
2017-11-04T04:39:37.258Z,1008.63
2017-11-04T04:40:37.258Z,1008.59
2017-11-04T04:41:37.260Z,1008.58
2017-11-04T04:42:37.256Z,1008.64
2017-11-04T04:43:37.260Z,1008.62
2017-11-04T04:44:37.264Z,1008.62
2017-11-04T04:45:37.260Z,1008.59
2017-11-04T04:46:37.260Z,1008.60
2017-11-04T04:47:37.259Z,1008.60
2017-11-04T04:48:37.264Z,1008.62
2017-11-04T04:49:37.255Z,1008.63
2017-11-04T04:50:37.261Z,1008.65
2017-11-04T04:51:44.024Z,1008.63
2017-11-04T04:52:37.260Z,1008.61
2017-11-04T04:53:37.260Z,1008.60
2017-11-04T04:54:37.257Z,1008.61
2017-11-04T04:55:37.261Z,1008.61
2017-11-04T04:56:37.259Z,1008.60
2017-11-04T04:57:37.261Z,1008.58
2017-11-04T04:58:37.274Z,1008.56
2017-11-04T04:59:37.257Z,1008.56
2017-11-04T05:00:37.266Z,1008.53
2017-11-04T05:01:37.265Z,1008.54
2017-11-04T05:02:37.277Z,1008.50
2017-11-04T05:03:37.257Z,1008.54
2017-11-04T05:04:37.255Z,1008.50
2017-11-04T05:05:37.266Z,1008.55
2017-11-04T05:06:37.257Z,1008.53
2017-11-04T05:07:37.277Z,1008.53
2017-11-04T05:08:37.263Z,1008.47
2017-11-04T05:09:37.254Z,1008.49
2017-11-04T05:10:37.253Z,1008.50
2017-11-04T05:11:37.261Z,1008.49
2017-11-04T05:12:37.261Z,1008.49
2017-11-04T05:13:37.260Z,1008.49
2017-11-04T05:14:37.266Z,1008.42
2017-11-04T05:15:37.256Z,1008.43
2017-11-04T05:16:37.265Z,1008.45
2017-11-04T05:17:37.255Z,1008.46
2017-11-04T05:18:37.253Z,1008.45
2017-11-04T05:19:37.257Z,1008.44
2017-11-04T05:20:37.254Z,1008.41
2017-11-04T05:21:37.252Z,1008.43
2017-11-04T05:22:37.253Z,1008.43
2017-11-04T05:23:37.253Z,1008.44
2017-11-04T05:24:37.253Z,1008.44
2017-11-04T05:25:37.259Z,1008.41
2017-11-04T05:26:37.256Z,1008.44
2017-11-04T05:27:37.250Z,1008.38
2017-11-04T05:28:37.250Z,1008.37
2017-11-04T05:29:37.254Z,1008.37
2017-11-04T05:30:37.249Z,1008.32
2017-11-04T05:31:37.252Z,1008.33
2017-11-04T05:32:37.253Z,1008.30
2017-11-04T05:33:37.253Z,1008.32
2017-11-04T05:34:37.245Z,1008.32
2017-11-04T05:35:37.246Z,1008.33
2017-11-04T05:36:37.246Z,1008.31
2017-11-04T05:37:37.246Z,1008.29
2017-11-04T05:38:37.246Z,1008.31
2017-11-04T05:39:37.246Z,1008.34
2017-11-04T05:40:37.250Z,1008.29
2017-11-04T05:41:37.245Z,1008.30
2017-11-04T05:42:37.250Z,1008.26
2017-11-04T05:43:37.244Z,1008.30
2017-11-04T05:44:37.268Z,1008.28
2017-11-04T05:45:37.246Z,1008.31
2017-11-04T05:46:37.253Z,1008.26
2017-11-04T05:47:37.249Z,1008.30
2017-11-04T05:48:37.246Z,1008.28
2017-11-04T05:49:37.253Z,1008.28
2017-11-04T05:50:37.242Z,1008.29
2017-11-04T05:51:37.245Z,1008.31
2017-11-04T05:52:37.240Z,1008.29
2017-11-04T05:53:37.239Z,1008.30
2017-11-04T05:54:37.240Z,1008.27
2017-11-04T05:55:37.267Z,1008.24
2017-11-04T05:56:37.243Z,1008.24
2017-11-04T05:57:37.245Z,1008.26
2017-11-04T05:58:37.239Z,1008.22
2017-11-04T05:59:37.238Z,1008.23
2017-11-04T06:00:37.240Z,1008.19
2017-11-04T06:01:37.239Z,1008.19
2017-11-04T06:02:37.239Z,1008.20
2017-11-04T06:03:37.244Z,1008.18
2017-11-04T06:04:37.250Z,1008.18
2017-11-04T06:05:37.241Z,1008.21
2017-11-04T06:06:37.252Z,1008.23
2017-11-04T06:07:37.243Z,1008.22
2017-11-04T06:08:37.244Z,1008.23
2017-11-04T06:09:37.240Z,1008.23
2017-11-04T06:10:37.236Z,1008.27
2017-11-04T06:11:37.241Z,1008.22
2017-11-04T06:12:37.234Z,1008.22
2017-11-04T06:13:37.234Z,1008.25
2017-11-04T06:14:37.240Z,1008.27
2017-11-04T06:15:37.232Z,1008.23
2017-11-04T06:16:37.230Z,1008.25
2017-11-04T06:17:37.232Z,1008.21
2017-11-04T06:18:37.225Z,1008.26
2017-11-04T06:19:37.239Z,1008.27
2017-11-04T06:20:37.227Z,1008.29
2017-11-04T06:21:37.227Z,1008.29
2017-11-04T06:22:37.226Z,1008.30
2017-11-04T06:23:37.227Z,1008.25
2017-11-04T06:24:37.233Z,1008.25
2017-11-04T06:25:37.233Z,1008.29
2017-11-04T06:26:37.227Z,1008.24
2017-11-04T06:27:37.227Z,1008.20
2017-11-04T06:28:37.222Z,1008.22
2017-11-04T06:29:37.223Z,1008.23
2017-11-04T06:30:37.221Z,1008.22
2017-11-04T06:31:37.223Z,1008.19
2017-11-04T06:32:37.225Z,1008.22
2017-11-04T06:33:37.219Z,1008.23
2017-11-04T06:34:37.219Z,1008.22
2017-11-04T06:35:37.219Z,1008.24
2017-11-04T06:36:37.223Z,1008.23
2017-11-04T06:37:37.219Z,1008.23
2017-11-04T06:38:37.218Z,1008.20
2017-11-04T06:39:37.218Z,1008.21
2017-11-04T06:40:37.219Z,1008.20
2017-11-04T06:41:37.217Z,1008.20
2017-11-04T06:42:37.212Z,1008.20
2017-11-04T06:43:37.232Z,1008.22
2017-11-04T06:44:37.210Z,1008.18
2017-11-04T06:45:37.223Z,1008.20
2017-11-04T06:46:37.216Z,1008.20
2017-11-04T06:47:37.213Z,1008.22
2017-11-04T06:48:37.211Z,1008.22
2017-11-04T06:49:37.210Z,1008.23
2017-11-04T06:50:37.214Z,1008.23
2017-11-04T06:51:37.249Z,1008.23
2017-11-04T06:52:37.214Z,1008.22
2017-11-04T06:53:37.232Z,1008.20
2017-11-04T06:54:37.204Z,1008.22
2017-11-04T06:55:37.201Z,1008.22
2017-11-04T06:56:37.209Z,1008.22
2017-11-04T06:57:37.201Z,1008.19
2017-11-04T06:58:37.204Z,1008.25
2017-11-04T06:59:37.202Z,1008.22
2017-11-04T07:00:37.198Z,1008.22
2017-11-04T07:01:37.228Z,1008.23
2017-11-04T07:02:37.203Z,1008.22
2017-11-04T07:03:37.204Z,1008.21
2017-11-04T07:04:37.203Z,1008.23
2017-11-04T07:05:37.203Z,1008.26
2017-11-04T07:06:37.194Z,1008.22
2017-11-04T07:07:37.197Z,1008.22
2017-11-04T07:08:37.193Z,1008.24
2017-11-04T07:09:37.196Z,1008.27
2017-11-04T07:10:37.191Z,1008.24
2017-11-04T07:11:37.194Z,1008.25
2017-11-04T07:12:37.192Z,1008.27
2017-11-04T07:13:37.196Z,1008.31
2017-11-04T07:14:37.193Z,1008.29
2017-11-04T07:15:37.188Z,1008.31
2017-11-04T07:16:37.192Z,1008.26
2017-11-04T07:17:37.208Z,1008.32
2017-11-04T07:18:37.187Z,1008.31
2017-11-04T07:19:37.188Z,1008.27
2017-11-04T07:20:37.196Z,1008.26
2017-11-04T07:21:37.190Z,1008.31
2017-11-04T07:22:37.189Z,1008.29
2017-11-04T07:23:37.193Z,1008.31
2017-11-04T07:24:37.181Z,1008.34
2017-11-04T07:25:37.190Z,1008.31
2017-11-04T07:26:37.185Z,1008.25
2017-11-04T07:27:37.180Z,1008.28
2017-11-04T07:28:37.184Z,1008.29
2017-11-04T07:29:37.180Z,1008.27
2017-11-04T07:30:37.180Z,1008.27
2017-11-04T07:31:37.183Z,1008.27
2017-11-04T07:32:37.182Z,1008.26
2017-11-04T07:33:37.182Z,1008.24
2017-11-04T07:34:37.175Z,1008.24
2017-11-04T07:35:37.182Z,1008.22
2017-11-04T07:36:37.178Z,1008.22
2017-11-04T07:37:37.179Z,1008.22
2017-11-04T07:38:37.178Z,1008.18
2017-11-04T07:39:37.173Z,1008.19
2017-11-04T07:40:37.172Z,1008.18
2017-11-04T07:41:37.172Z,1008.13
2017-11-04T07:42:37.175Z,1008.13
2017-11-04T07:43:37.172Z,1008.11
2017-11-04T07:44:37.172Z,1008.15
2017-11-04T07:45:37.173Z,1008.13
2017-11-04T07:46:37.174Z,1008.12
2017-11-04T07:47:37.174Z,1008.12
2017-11-04T07:48:37.173Z,1008.16
2017-11-04T07:49:37.173Z,1008.13
2017-11-04T07:50:37.168Z,1008.14
2017-11-04T07:51:37.178Z,1008.16
2017-11-04T07:52:37.172Z,1008.12
2017-11-04T07:53:37.173Z,1008.11
2017-11-04T07:54:37.175Z,1008.12
2017-11-04T07:55:37.174Z,1008.13
2017-11-04T07:56:37.166Z,1008.11
2017-11-04T07:57:37.165Z,1008.13
2017-11-04T07:58:37.163Z,1008.11
2017-11-04T07:59:37.166Z,1008.07
2017-11-04T08:00:37.167Z,1008.08
2017-11-04T08:01:37.168Z,1008.08
2017-11-04T08:02:37.164Z,1008.06
2017-11-04T08:03:37.167Z,1008.07
2017-11-04T08:04:37.164Z,1008.07
2017-11-04T08:05:37.166Z,1008.07
2017-11-04T08:06:37.164Z,1008.00
2017-11-04T08:07:37.165Z,1007.98
2017-11-04T08:08:37.163Z,1007.95
2017-11-04T08:09:37.164Z,1007.93
2017-11-04T08:10:37.164Z,1007.93
2017-11-04T08:11:37.161Z,1007.94
2017-11-04T08:12:37.164Z,1007.90
2017-11-04T08:13:37.165Z,1007.93
2017-11-04T08:14:37.165Z,1007.94
2017-11-04T08:15:37.159Z,1007.93
2017-11-04T08:16:37.163Z,1007.88
2017-11-04T08:17:37.160Z,1007.90
2017-11-04T08:18:37.160Z,1007.89
2017-11-04T08:19:37.158Z,1007.83
2017-11-04T08:20:37.159Z,1007.87
2017-11-04T08:21:37.168Z,1007.77
2017-11-04T08:22:37.161Z,1007.75
2017-11-04T08:23:37.164Z,1007.75
2017-11-04T08:24:37.161Z,1007.76
2017-11-04T08:25:37.159Z,1007.79
2017-11-04T08:26:37.163Z,1007.76
2017-11-04T08:27:37.160Z,1007.72
2017-11-04T08:28:37.163Z,1007.71
2017-11-04T08:29:37.173Z,1007.68
2017-11-04T08:30:37.165Z,1007.76
2017-11-04T08:31:37.167Z,1007.75
2017-11-04T08:32:37.161Z,1007.77
2017-11-04T08:33:37.159Z,1007.75
2017-11-04T08:34:37.160Z,1007.77
2017-11-04T08:35:37.160Z,1007.74
2017-11-04T08:36:37.163Z,1007.73
2017-11-04T08:37:37.161Z,1007.71
2017-11-04T08:38:37.173Z,1007.72
2017-11-04T08:39:37.161Z,1007.77
2017-11-04T08:40:37.162Z,1007.76
2017-11-04T08:41:37.161Z,1007.74
2017-11-04T08:42:37.167Z,1007.77
2017-11-04T08:43:37.169Z,1007.77
2017-11-04T08:44:37.164Z,1007.73
2017-11-04T08:45:37.162Z,1007.76
2017-11-04T08:46:37.161Z,1007.75
2017-11-04T08:47:37.160Z,1007.75
2017-11-04T08:48:37.161Z,1007.74
2017-11-04T08:49:37.161Z,1007.71
2017-11-04T08:50:37.162Z,1007.72
2017-11-04T08:51:37.162Z,1007.65
2017-11-04T08:52:37.163Z,1007.67
2017-11-04T08:53:37.164Z,1007.66
2017-11-04T08:54:37.164Z,1007.67
2017-11-04T08:55:37.162Z,1007.66
2017-11-04T08:56:37.162Z,1007.65
2017-11-04T08:57:37.196Z,1007.60
2017-11-04T08:58:37.160Z,1007.58
2017-11-04T08:59:37.162Z,1007.57
2017-11-04T09:00:37.162Z,1007.55
2017-11-04T09:01:37.167Z,1007.56
2017-11-04T09:02:37.163Z,1007.55
2017-11-04T09:03:37.165Z,1007.57
2017-11-04T09:04:37.163Z,1007.57
2017-11-04T09:05:37.164Z,1007.59
2017-11-04T09:06:37.161Z,1007.58
2017-11-04T09:07:37.187Z,1007.55
2017-11-04T09:08:37.169Z,1007.51
2017-11-04T09:09:37.173Z,1007.50
2017-11-04T09:10:37.162Z,1007.45
2017-11-04T09:11:37.165Z,1007.41
2017-11-04T09:12:37.167Z,1007.37
2017-11-04T09:13:37.166Z,1007.37
2017-11-04T09:14:37.166Z,1007.33
2017-11-04T09:15:37.172Z,1007.30
2017-11-04T09:16:37.168Z,1007.27
2017-11-04T09:17:37.182Z,1007.23
2017-11-04T09:18:37.178Z,1007.23
2017-11-04T09:19:37.170Z,1007.27
2017-11-04T09:20:37.180Z,1007.26
2017-11-04T09:21:37.174Z,1007.18
2017-11-04T09:22:37.171Z,1007.23
2017-11-04T09:23:37.478Z,1007.21
2017-11-04T09:24:37.174Z,1007.14
2017-11-04T09:25:37.175Z,1007.18
2017-11-04T09:26:37.173Z,1007.23
2017-11-04T09:27:37.180Z,1007.23
2017-11-04T09:28:37.173Z,1007.25
2017-11-04T09:29:37.174Z,1007.24
2017-11-04T09:30:37.177Z,1007.30
2017-11-04T09:31:37.175Z,1007.27
2017-11-04T09:32:37.181Z,1007.27
2017-11-04T09:33:37.205Z,1007.24
2017-11-04T09:34:37.182Z,1007.19
2017-11-04T09:35:37.188Z,1007.15
2017-11-04T09:36:37.182Z,1007.10
2017-11-04T09:37:37.181Z,1007.11
2017-11-04T09:38:37.179Z,1007.05
2017-11-04T09:39:37.179Z,1007.05
2017-11-04T09:40:37.182Z,1007.03
2017-11-04T09:41:37.184Z,1007.04
2017-11-04T09:42:37.184Z,1007.02
2017-11-04T09:43:37.183Z,1007.01
2017-11-04T09:44:37.183Z,1006.96
2017-11-04T09:45:37.198Z,1006.96
2017-11-04T09:46:37.191Z,1006.89
2017-11-04T09:47:37.236Z,1006.91
2017-11-04T09:48:37.186Z,1006.87
2017-11-04T09:49:37.197Z,1006.84
2017-11-04T09:50:37.187Z,1006.84
2017-11-04T09:51:37.197Z,1006.88
2017-11-04T09:52:37.191Z,1006.84
2017-11-04T09:53:37.192Z,1006.90
2017-11-04T09:54:37.188Z,1006.89
2017-11-04T09:55:37.202Z,1006.87
2017-11-04T09:56:37.204Z,1006.85
2017-11-04T09:57:37.195Z,1006.90
2017-11-04T09:58:37.191Z,1006.92
2017-11-04T09:59:37.192Z,1006.91
2017-11-04T10:00:37.192Z,1006.93
2017-11-04T10:01:37.196Z,1006.98
2017-11-04T10:02:37.198Z,1006.92
2017-11-04T10:03:37.202Z,1006.86
2017-11-04T10:04:37.200Z,1006.91
2017-11-04T10:05:37.209Z,1006.82
2017-11-04T10:06:37.202Z,1006.82
2017-11-04T10:07:37.201Z,1006.83
2017-11-04T10:08:37.200Z,1006.84
2017-11-04T10:09:37.202Z,1006.90
2017-11-04T10:10:37.207Z,1006.90
2017-11-04T10:11:37.204Z,1006.87
2017-11-04T10:12:37.250Z,1006.80
2017-11-04T10:13:37.223Z,1006.71
2017-11-04T10:14:37.297Z,1006.62
2017-11-04T10:15:37.211Z,1006.58
2017-11-04T10:16:37.209Z,1006.59
2017-11-04T10:17:37.208Z,1006.60
2017-11-04T10:18:37.211Z,1006.59
2017-11-04T10:19:37.215Z,1006.59
2017-11-04T10:20:37.216Z,1006.59
2017-11-04T10:21:37.215Z,1006.57
2017-11-04T10:22:37.218Z,1006.56
2017-11-04T10:23:39.034Z,1006.51
2017-11-04T10:24:37.216Z,1006.51
2017-11-04T10:25:37.217Z,1006.51
2017-11-04T10:26:37.216Z,1006.50
2017-11-04T10:27:37.219Z,1006.52
2017-11-04T10:28:37.222Z,1006.52
2017-11-04T10:29:37.219Z,1006.49
2017-11-04T10:30:37.226Z,1006.49
2017-11-04T10:31:37.219Z,1006.47
2017-11-04T10:32:37.225Z,1006.45
2017-11-04T10:33:37.234Z,1006.38
2017-11-04T10:34:37.223Z,1006.41
2017-11-04T10:35:37.228Z,1006.36
2017-11-04T10:36:37.228Z,1006.38
2017-11-04T10:37:37.231Z,1006.39
2017-11-04T10:38:37.234Z,1006.40
2017-11-04T10:39:37.236Z,1006.37
2017-11-04T10:40:37.230Z,1006.37
2017-11-04T10:41:37.232Z,1006.38
2017-11-04T10:42:37.234Z,1006.33
2017-11-04T10:43:37.239Z,1006.32
2017-11-04T10:44:37.238Z,1006.27
2017-11-04T10:45:37.234Z,1006.19
2017-11-04T10:46:37.236Z,1006.20
2017-11-04T10:47:37.241Z,1006.23
2017-11-04T10:48:37.245Z,1006.20
2017-11-04T10:49:37.246Z,1006.16
2017-11-04T10:50:37.239Z,1006.16
2017-11-04T10:51:37.245Z,1006.09
2017-11-04T10:52:37.244Z,1006.08
2017-11-04T10:53:37.245Z,1006.07
2017-11-04T10:54:37.248Z,1006.04
2017-11-04T10:55:37.253Z,1006.01
2017-11-04T10:56:37.255Z,1006.04
2017-11-04T10:57:37.255Z,1006.01
2017-11-04T10:58:37.258Z,1006.02
2017-11-04T10:59:37.431Z,1005.98
2017-11-04T11:00:37.260Z,1006.00
2017-11-04T11:01:37.254Z,1005.98
2017-11-04T11:02:37.263Z,1005.93
2017-11-04T11:03:37.263Z,1005.91
2017-11-04T11:04:37.263Z,1005.86
2017-11-04T11:05:37.266Z,1005.86
2017-11-04T11:06:37.267Z,1005.83
2017-11-04T11:07:37.265Z,1005.83
2017-11-04T11:08:37.264Z,1005.77
2017-11-04T11:09:37.271Z,1005.74
2017-11-04T11:10:37.268Z,1005.74
2017-11-04T11:11:37.271Z,1005.69
2017-11-04T11:12:37.275Z,1005.67
2017-11-04T11:13:37.282Z,1005.71
2017-11-04T11:14:37.273Z,1005.71
2017-11-04T11:15:37.280Z,1005.73
2017-11-04T11:16:37.281Z,1005.71
2017-11-04T11:17:37.285Z,1005.71
2017-11-04T11:18:37.283Z,1005.72
2017-11-04T11:19:37.281Z,1005.69
2017-11-04T11:20:37.283Z,1005.67
2017-11-04T11:21:37.288Z,1005.62
2017-11-04T11:22:37.290Z,1005.59
2017-11-04T11:23:37.291Z,1005.61
2017-11-04T11:24:37.290Z,1005.59
2017-11-04T11:25:37.300Z,1005.51
2017-11-04T11:26:37.294Z,1005.60
2017-11-04T11:27:37.301Z,1005.49
2017-11-04T11:28:37.298Z,1005.48
2017-11-04T11:29:37.300Z,1005.49
2017-11-04T11:30:37.301Z,1005.49
2017-11-04T11:31:37.299Z,1005.48
2017-11-04T11:32:37.299Z,1005.51
2017-11-04T11:33:37.302Z,1005.51
2017-11-04T11:34:37.302Z,1005.54
2017-11-04T11:35:37.308Z,1005.52
2017-11-04T11:36:37.308Z,1005.50
2017-11-04T11:37:37.319Z,1005.53
2017-11-04T11:38:37.313Z,1005.48
2017-11-04T11:39:37.314Z,1005.49
2017-11-04T11:40:37.319Z,1005.46
2017-11-04T11:41:37.326Z,1005.48
2017-11-04T11:42:37.333Z,1005.45
2017-11-04T11:43:37.326Z,1005.47
2017-11-04T11:44:37.331Z,1005.44
2017-11-04T11:45:37.325Z,1005.44
2017-11-04T11:46:37.332Z,1005.36
2017-11-04T11:47:37.335Z,1005.39
2017-11-04T11:48:37.335Z,1005.40
2017-11-04T11:49:37.332Z,1005.40
2017-11-04T11:50:37.343Z,1005.34
2017-11-04T11:51:37.346Z,1005.28
2017-11-04T11:52:37.342Z,1005.28
2017-11-04T11:53:38.062Z,1005.27
2017-11-04T11:54:37.338Z,1005.22
2017-11-04T11:55:37.342Z,1005.17
2017-11-04T11:56:37.350Z,1005.17
2017-11-04T11:57:37.350Z,1005.12
2017-11-04T11:58:37.356Z,1005.08
2017-11-04T11:59:37.358Z,1005.00
2017-11-04T12:00:37.353Z,1005.02
2017-11-04T12:01:37.370Z,1004.98
2017-11-04T12:02:37.362Z,1004.98
2017-11-04T12:03:37.357Z,1004.96
2017-11-04T12:04:37.363Z,1004.95
2017-11-04T12:05:37.364Z,1004.98